sensor_id;sensor_type;location;lat;lon;timestamp;P1;durP1;ratioP1;P2;durP2;ratioP2
35084;SDS011;21267;51.032;6.998;2023-10-31T00:01:13;1.70;;;1.08;;
35084;SDS011;21267;51.032;6.998;2023-10-31T00:03:40;1.25;;;1.13;;
35084;SDS011;21267;51.032;6.998;2023-10-31T00:06:11;0.90;;;0.77;;
35084;SDS011;21267;51.032;6.998;2023-10-31T00:11:05;1.33;;;1.23;;
35084;SDS011;21267;51.032;6.998;2023-10-31T00:13:33;1.50;;;1.40;;
35084;SDS011;21267;51.032;6.998;2023-10-31T00:16:00;1.23;;;1.13;;
35084;SDS011;21267;51.032;6.998;2023-10-31T00:18:27;1.60;;;1.50;;
35084;SDS011;21267;51.032;6.998;2023-10-31T00:23:22;1.42;;;1.10;;
35084;SDS011;21267;51.032;6.998;2023-10-31T00:25:52;1.80;;;1.70;;
35084;SDS011;21267;51.032;6.998;2023-10-31T00:28:21;3.40;;;1.83;;
35084;SDS011;21267;51.032;6.998;2023-10-31T00:30:47;1.88;;;1.77;;
35084;SDS011;21267;51.032;6.998;2023-10-31T00:33:14;2.08;;;1.40;;
35084;SDS011;21267;51.032;6.998;2023-10-31T00:35:42;1.95;;;1.85;;
35084;SDS011;21267;51.032;6.998;2023-10-31T00:38:09;4.23;;;2.33;;
35084;SDS011;21267;51.032;6.998;2023-10-31T00:40:36;2.53;;;1.40;;
35084;SDS011;21267;51.032;6.998;2023-10-31T00:43:03;4.27;;;2.50;;
35084;SDS011;21267;51.032;6.998;2023-10-31T00:45:30;2.60;;;2.40;;
35084;SDS011;21267;51.032;6.998;2023-10-31T00:47:58;3.17;;;2.88;;
35084;SDS011;21267;51.032;6.998;2023-10-31T00:50:26;2.67;;;2.28;;
35084;SDS011;21267;51.032;6.998;2023-10-31T00:52:56;4.07;;;2.85;;
35084;SDS011;21267;51.032;6.998;2023-10-31T00:55:29;2.83;;;2.30;;
35084;SDS011;21267;51.032;6.998;2023-10-31T01:11:57;3.90;;;1.92;;
35084;SDS011;21267;51.032;6.998;2023-10-31T01:14:23;3.85;;;1.80;;
35084;SDS011;21267;51.032;6.998;2023-10-31T01:16:50;1.80;;;1.35;;
35084;SDS011;21267;51.032;6.998;2023-10-31T01:19:17;1.90;;;1.40;;
35084;SDS011;21267;51.032;6.998;2023-10-31T01:21:44;1.48;;;1.33;;
35084;SDS011;21267;51.032;6.998;2023-10-31T01:24:11;2.00;;;1.52;;
35084;SDS011;21267;51.032;6.998;2023-10-31T01:26:38;2.92;;;1.40;;
35084;SDS011;21267;51.032;6.998;2023-10-31T01:29:05;4.00;;;1.60;;
35084;SDS011;21267;51.032;6.998;2023-10-31T01:31:32;3.60;;;1.30;;
35084;SDS011;21267;51.032;6.998;2023-10-31T01:34:07;2.90;;;1.30;;
35084;SDS011;21267;51.032;6.998;2023-10-31T01:36:34;5.57;;;1.48;;
35084;SDS011;21267;51.032;6.998;2023-10-31T01:39:01;2.83;;;1.73;;
35084;SDS011;21267;51.032;6.998;2023-10-31T01:41:28;5.57;;;1.50;;
35084;SDS011;21267;51.032;6.998;2023-10-31T01:43:55;3.28;;;1.40;;
35084;SDS011;21267;51.032;6.998;2023-10-31T01:46:22;1.63;;;1.17;;
35084;SDS011;21267;51.032;6.998;2023-10-31T01:48:49;2.63;;;1.42;;
35084;SDS011;21267;51.032;6.998;2023-10-31T01:51:15;3.03;;;1.58;;
35084;SDS011;21267;51.032;6.998;2023-10-31T01:53:42;4.07;;;1.67;;
35084;SDS011;21267;51.032;6.998;2023-10-31T01:56:09;3.50;;;1.60;;
35084;SDS011;21267;51.032;6.998;2023-10-31T01:58:36;3.63;;;1.60;;
35084;SDS011;21267;51.032;6.998;2023-10-31T02:01:04;1.88;;;1.20;;
35084;SDS011;21267;51.032;6.998;2023-10-31T02:03:32;5.05;;;1.75;;
35084;SDS011;21267;51.032;6.998;2023-10-31T02:06:00;2.10;;;1.20;;
35084;SDS011;21267;51.032;6.998;2023-10-31T02:08:27;2.50;;;1.25;;
35084;SDS011;21267;51.032;6.998;2023-10-31T02:10:54;2.07;;;1.47;;
35084;SDS011;21267;51.032;6.998;2023-10-31T02:13:21;2.97;;;1.23;;
35084;SDS011;21267;51.032;6.998;2023-10-31T02:15:48;5.90;;;2.35;;
35084;SDS011;21267;51.032;6.998;2023-10-31T02:18:15;3.73;;;1.57;;
35084;SDS011;21267;51.032;6.998;2023-10-31T02:20:42;2.83;;;1.63;;
35084;SDS011;21267;51.032;6.998;2023-10-31T02:23:09;2.53;;;1.58;;
35084;SDS011;21267;51.032;6.998;2023-10-31T02:25:36;4.47;;;1.47;;
35084;SDS011;21267;51.032;6.998;2023-10-31T02:28:03;2.17;;;1.10;;
35084;SDS011;21267;51.032;6.998;2023-10-31T02:30:30;2.33;;;1.30;;
35084;SDS011;21267;51.032;6.998;2023-10-31T02:32:57;3.00;;;1.17;;
35084;SDS011;21267;51.032;6.998;2023-10-31T02:35:24;2.97;;;2.10;;
35084;SDS011;21267;51.032;6.998;2023-10-31T02:37:51;3.58;;;2.00;;
35084;SDS011;21267;51.032;6.998;2023-10-31T02:40:17;2.37;;;1.57;;
35084;SDS011;21267;51.032;6.998;2023-10-31T02:42:44;4.40;;;2.40;;
35084;SDS011;21267;51.032;6.998;2023-10-31T02:45:11;5.25;;;1.92;;
35084;SDS011;21267;51.032;6.998;2023-10-31T02:47:38;4.03;;;1.67;;
35084;SDS011;21267;51.032;6.998;2023-10-31T02:50:05;3.70;;;2.08;;
35084;SDS011;21267;51.032;6.998;2023-10-31T02:52:32;4.80;;;1.88;;
35084;SDS011;21267;51.032;6.998;2023-10-31T02:54:59;3.60;;;2.08;;
35084;SDS011;21267;51.032;6.998;2023-10-31T02:57:26;7.25;;;2.30;;
35084;SDS011;21267;51.032;6.998;2023-10-31T02:59:53;8.20;;;2.87;;
35084;SDS011;21267;51.032;6.998;2023-10-31T03:02:20;5.13;;;2.30;;
35084;SDS011;21267;51.032;6.998;2023-10-31T03:04:47;4.45;;;2.22;;
35084;SDS011;21267;51.032;6.998;2023-10-31T03:07:13;4.93;;;2.30;;
35084;SDS011;21267;51.032;6.998;2023-10-31T03:09:40;3.10;;;1.98;;
35084;SDS011;21267;51.032;6.998;2023-10-31T03:12:07;5.20;;;2.17;;
35084;SDS011;21267;51.032;6.998;2023-10-31T03:14:34;6.97;;;2.30;;
35084;SDS011;21267;51.032;6.998;2023-10-31T03:17:01;7.40;;;1.88;;
35084;SDS011;21267;51.032;6.998;2023-10-31T03:19:28;2.53;;;1.75;;
35084;SDS011;21267;51.032;6.998;2023-10-31T03:21:55;5.10;;;2.50;;
35084;SDS011;21267;51.032;6.998;2023-10-31T03:24:21;4.22;;;2.03;;
35084;SDS011;21267;51.032;6.998;2023-10-31T03:26:48;5.57;;;2.25;;
35084;SDS011;21267;51.032;6.998;2023-10-31T03:29:15;6.47;;;2.63;;
35084;SDS011;21267;51.032;6.998;2023-10-31T03:31:41;3.53;;;2.05;;
35084;SDS011;21267;51.032;6.998;2023-10-31T03:34:08;3.20;;;1.45;;
35084;SDS011;21267;51.032;6.998;2023-10-31T03:36:35;4.63;;;2.13;;
35084;SDS011;21267;51.032;6.998;2023-10-31T03:39:02;5.43;;;2.10;;
35084;SDS011;21267;51.032;6.998;2023-10-31T03:41:29;4.70;;;2.17;;
35084;SDS011;21267;51.032;6.998;2023-10-31T03:43:56;4.95;;;2.25;;
35084;SDS011;21267;51.032;6.998;2023-10-31T03:46:23;3.05;;;2.13;;
35084;SDS011;21267;51.032;6.998;2023-10-31T03:48:49;3.45;;;1.85;;
35084;SDS011;21267;51.032;6.998;2023-10-31T03:51:17;3.28;;;1.58;;
35084;SDS011;21267;51.032;6.998;2023-10-31T03:53:43;2.00;;;1.55;;
35084;SDS011;21267;51.032;6.998;2023-10-31T03:56:11;2.58;;;1.33;;
35084;SDS011;21267;51.032;6.998;2023-10-31T03:58:37;4.18;;;1.77;;
35084;SDS011;21267;51.032;6.998;2023-10-31T04:01:07;9.55;;;1.63;;
35084;SDS011;21267;51.032;6.998;2023-10-31T04:03:33;2.58;;;1.40;;
35084;SDS011;21267;51.032;6.998;2023-10-31T04:06:00;2.97;;;1.88;;
35084;SDS011;21267;51.032;6.998;2023-10-31T04:08:27;8.25;;;2.80;;
35084;SDS011;21267;51.032;6.998;2023-10-31T04:10:54;6.53;;;3.00;;
35084;SDS011;21267;51.032;6.998;2023-10-31T04:13:21;5.13;;;2.63;;
35084;SDS011;21267;51.032;6.998;2023-10-31T04:15:48;2.97;;;1.90;;
35084;SDS011;21267;51.032;6.998;2023-10-31T04:18:15;8.55;;;4.28;;
35084;SDS011;21267;51.032;6.998;2023-10-31T04:20:43;6.78;;;3.25;;
35084;SDS011;21267;51.032;6.998;2023-10-31T04:23:10;9.17;;;3.80;;
35084;SDS011;21267;51.032;6.998;2023-10-31T04:25:38;6.65;;;2.90;;
35084;SDS011;21267;51.032;6.998;2023-10-31T04:28:05;10.53;;;4.23;;
35084;SDS011;21267;51.032;6.998;2023-10-31T04:30:32;5.47;;;2.78;;
35084;SDS011;21267;51.032;6.998;2023-10-31T04:32:58;6.47;;;2.53;;
35084;SDS011;21267;51.032;6.998;2023-10-31T04:35:25;9.03;;;2.87;;
35084;SDS011;21267;51.032;6.998;2023-10-31T04:37:52;6.50;;;2.90;;
35084;SDS011;21267;51.032;6.998;2023-10-31T04:40:19;1.90;;;1.40;;
35084;SDS011;21267;51.032;6.998;2023-10-31T04:42:46;3.45;;;1.63;;
35084;SDS011;21267;51.032;6.998;2023-10-31T04:45:14;3.78;;;1.33;;
35084;SDS011;21267;51.032;6.998;2023-10-31T04:47:41;2.13;;;1.42;;
35084;SDS011;21267;51.032;6.998;2023-10-31T04:50:09;2.33;;;1.10;;
35084;SDS011;21267;51.032;6.998;2023-10-31T04:52:35;3.03;;;1.33;;
35084;SDS011;21267;51.032;6.998;2023-10-31T04:55:02;4.80;;;1.45;;
35084;SDS011;21267;51.032;6.998;2023-10-31T04:57:30;5.50;;;1.53;;
35084;SDS011;21267;51.032;6.998;2023-10-31T04:59:58;2.42;;;1.30;;
35084;SDS011;21267;51.032;6.998;2023-10-31T05:02:25;4.45;;;1.30;;
35084;SDS011;21267;51.032;6.998;2023-10-31T05:04:52;4.63;;;1.30;;
35084;SDS011;21267;51.032;6.998;2023-10-31T05:07:19;2.57;;;1.30;;
35084;SDS011;21267;51.032;6.998;2023-10-31T05:09:46;2.65;;;1.55;;
35084;SDS011;21267;51.032;6.998;2023-10-31T05:12:13;2.00;;;1.73;;
35084;SDS011;21267;51.032;6.998;2023-10-31T05:14:40;1.33;;;1.23;;
35084;SDS011;21267;51.032;6.998;2023-10-31T05:17:07;2.60;;;1.52;;
35084;SDS011;21267;51.032;6.998;2023-10-31T05:19:34;3.03;;;1.52;;
35084;SDS011;21267;51.032;6.998;2023-10-31T05:22:01;2.38;;;2.00;;
35084;SDS011;21267;51.032;6.998;2023-10-31T05:24:27;3.92;;;1.50;;
35084;SDS011;21267;51.032;6.998;2023-10-31T05:26:54;2.80;;;1.30;;
35084;SDS011;21267;51.032;6.998;2023-10-31T05:29:21;1.20;;;1.10;;
35084;SDS011;21267;51.032;6.998;2023-10-31T05:31:48;2.88;;;1.52;;
35084;SDS011;21267;51.032;6.998;2023-10-31T05:34:15;3.20;;;1.13;;
35084;SDS011;21267;51.032;6.998;2023-10-31T05:36:42;4.37;;;1.70;;
35084;SDS011;21267;51.032;6.998;2023-10-31T05:39:09;1.98;;;1.50;;
35084;SDS011;21267;51.032;6.998;2023-10-31T05:41:36;1.20;;;1.10;;
35084;SDS011;21267;51.032;6.998;2023-10-31T05:44:02;2.83;;;1.58;;
35084;SDS011;21267;51.032;6.998;2023-10-31T05:46:30;2.50;;;2.03;;
35084;SDS011;21267;51.032;6.998;2023-10-31T05:48:56;3.35;;;1.58;;
35084;SDS011;21267;51.032;6.998;2023-10-31T05:51:23;1.40;;;1.30;;
35084;SDS011;21267;51.032;6.998;2023-10-31T05:53:52;2.92;;;1.25;;
35084;SDS011;21267;51.032;6.998;2023-10-31T05:56:18;2.13;;;1.58;;
35084;SDS011;21267;51.032;6.998;2023-10-31T05:58:45;2.58;;;1.70;;
35084;SDS011;21267;51.032;6.998;2023-10-31T06:01:12;3.43;;;1.37;;
35084;SDS011;21267;51.032;6.998;2023-10-31T06:03:42;3.25;;;1.75;;
35084;SDS011;21267;51.032;6.998;2023-10-31T06:06:12;2.20;;;1.92;;
35084;SDS011;21267;51.032;6.998;2023-10-31T06:08:39;4.03;;;1.92;;
35084;SDS011;21267;51.032;6.998;2023-10-31T06:11:07;3.90;;;2.70;;
35084;SDS011;21267;51.032;6.998;2023-10-31T06:13:34;3.50;;;2.20;;
35084;SDS011;21267;51.032;6.998;2023-10-31T06:16:01;3.83;;;1.65;;
35084;SDS011;21267;51.032;6.998;2023-10-31T06:18:28;2.90;;;1.97;;
35084;SDS011;21267;51.032;6.998;2023-10-31T06:20:55;1.50;;;1.40;;
35084;SDS011;21267;51.032;6.998;2023-10-31T06:23:22;2.85;;;2.28;;
35084;SDS011;21267;51.032;6.998;2023-10-31T06:25:49;3.83;;;1.67;;
35084;SDS011;21267;51.032;6.998;2023-10-31T06:28:16;2.87;;;2.60;;
35084;SDS011;21267;51.032;6.998;2023-10-31T06:30:43;2.15;;;1.98;;
35084;SDS011;21267;51.032;6.998;2023-10-31T06:33:10;1.37;;;1.27;;
35084;SDS011;21267;51.032;6.998;2023-10-31T06:35:38;2.33;;;1.63;;
35084;SDS011;21267;51.032;6.998;2023-10-31T06:38:06;3.63;;;2.23;;
35084;SDS011;21267;51.032;6.998;2023-10-31T06:40:32;2.87;;;2.57;;
35084;SDS011;21267;51.032;6.998;2023-10-31T06:43:00;2.80;;;2.60;;
35084;SDS011;21267;51.032;6.998;2023-10-31T06:45:28;2.35;;;2.08;;
35084;SDS011;21267;51.032;6.998;2023-10-31T06:47:55;2.67;;;2.40;;
35084;SDS011;21267;51.032;6.998;2023-10-31T06:50:21;2.65;;;2.45;;
35084;SDS011;21267;51.032;6.998;2023-10-31T06:52:49;4.30;;;3.60;;
35084;SDS011;21267;51.032;6.998;2023-10-31T06:55:16;3.33;;;3.10;;
35084;SDS011;21267;51.032;6.998;2023-10-31T06:57:43;4.75;;;4.30;;
35084;SDS011;21267;51.032;6.998;2023-10-31T07:00:13;2.33;;;2.10;;
35084;SDS011;21267;51.032;6.998;2023-10-31T07:02:40;3.53;;;3.13;;
35084;SDS011;21267;51.032;6.998;2023-10-31T07:05:07;5.37;;;3.50;;
35084;SDS011;21267;51.032;6.998;2023-10-31T07:07:34;5.25;;;2.97;;
35084;SDS011;21267;51.032;6.998;2023-10-31T07:10:01;3.92;;;2.55;;
35084;SDS011;21267;51.032;6.998;2023-10-31T07:12:28;5.70;;;4.28;;
35084;SDS011;21267;51.032;6.998;2023-10-31T07:14:55;3.80;;;3.28;;
35084;SDS011;21267;51.032;6.998;2023-10-31T07:17:21;3.13;;;2.40;;
35084;SDS011;21267;51.032;6.998;2023-10-31T07:19:48;4.23;;;3.83;;
35084;SDS011;21267;51.032;6.998;2023-10-31T07:22:15;6.22;;;5.18;;
35084;SDS011;21267;51.032;6.998;2023-10-31T07:24:42;7.60;;;4.93;;
35084;SDS011;21267;51.032;6.998;2023-10-31T07:27:09;6.38;;;4.78;;
35084;SDS011;21267;51.032;6.998;2023-10-31T07:44:01;7.45;;;4.75;;
35084;SDS011;21267;51.032;6.998;2023-10-31T07:46:27;6.72;;;5.95;;
35084;SDS011;21267;51.032;6.998;2023-10-31T07:48:54;8.23;;;5.13;;
35084;SDS011;21267;51.032;6.998;2023-10-31T07:51:21;5.35;;;4.85;;
35084;SDS011;21267;51.032;6.998;2023-10-31T07:53:48;5.63;;;5.13;;
35084;SDS011;21267;51.032;6.998;2023-10-31T07:56:18;5.10;;;4.70;;
35084;SDS011;21267;51.032;6.998;2023-10-31T07:58:49;8.90;;;5.78;;
35084;SDS011;21267;51.032;6.998;2023-10-31T08:01:19;7.50;;;3.85;;
35084;SDS011;21267;51.032;6.998;2023-10-31T08:03:46;5.07;;;3.72;;
35084;SDS011;21267;51.032;6.998;2023-10-31T08:06:14;5.10;;;3.08;;
35084;SDS011;21267;51.032;6.998;2023-10-31T08:08:41;6.93;;;4.75;;
35084;SDS011;21267;51.032;6.998;2023-10-31T08:11:08;6.22;;;4.70;;
35084;SDS011;21267;51.032;6.998;2023-10-31T08:13:36;6.03;;;4.55;;
35084;SDS011;21267;51.032;6.998;2023-10-31T08:18:32;5.45;;;3.97;;
35084;SDS011;21267;51.032;6.998;2023-10-31T08:20:59;6.83;;;2.80;;
35084;SDS011;21267;51.032;6.998;2023-10-31T08:23:28;4.80;;;3.70;;
35084;SDS011;21267;51.032;6.998;2023-10-31T08:25:56;5.28;;;2.50;;
35084;SDS011;21267;51.032;6.998;2023-10-31T08:28:22;6.90;;;3.30;;
35084;SDS011;21267;51.032;6.998;2023-10-31T08:30:49;4.70;;;4.27;;
35084;SDS011;21267;51.032;6.998;2023-10-31T08:33:16;5.75;;;2.88;;
35084;SDS011;21267;51.032;6.998;2023-10-31T08:35:43;4.45;;;3.60;;
35084;SDS011;21267;51.032;6.998;2023-10-31T08:38:10;4.88;;;2.45;;
35084;SDS011;21267;51.032;6.998;2023-10-31T08:40:51;6.32;;;2.60;;
35084;SDS011;21267;51.032;6.998;2023-10-31T08:43:18;6.20;;;2.80;;
35084;SDS011;21267;51.032;6.998;2023-10-31T08:45:45;4.50;;;2.70;;
35084;SDS011;21267;51.032;6.998;2023-10-31T08:48:12;3.63;;;2.60;;
35084;SDS011;21267;51.032;6.998;2023-10-31T08:50:39;4.25;;;2.70;;
35084;SDS011;21267;51.032;6.998;2023-10-31T08:53:06;4.80;;;3.30;;
35084;SDS011;21267;51.032;6.998;2023-10-31T08:55:33;2.23;;;1.57;;
35084;SDS011;21267;51.032;6.998;2023-10-31T08:58:00;3.43;;;2.20;;
35084;SDS011;21267;51.032;6.998;2023-10-31T09:00:27;7.00;;;2.85;;
35084;SDS011;21267;51.032;6.998;2023-10-31T09:02:54;3.45;;;2.25;;
35084;SDS011;21267;51.032;6.998;2023-10-31T09:05:21;4.57;;;2.43;;
35084;SDS011;21267;51.032;6.998;2023-10-31T09:07:48;6.47;;;2.70;;
35084;SDS011;21267;51.032;6.998;2023-10-31T09:10:15;5.55;;;2.75;;
35084;SDS011;21267;51.032;6.998;2023-10-31T09:12:42;3.33;;;2.40;;
35084;SDS011;21267;51.032;6.998;2023-10-31T09:15:09;2.72;;;2.13;;
35084;SDS011;21267;51.032;6.998;2023-10-31T09:17:36;4.93;;;2.80;;
35084;SDS011;21267;51.032;6.998;2023-10-31T09:20:03;4.20;;;2.63;;
35084;SDS011;21267;51.032;6.998;2023-10-31T09:24:58;4.10;;;2.65;;
35084;SDS011;21267;51.032;6.998;2023-10-31T09:27:25;2.70;;;2.23;;
35084;SDS011;21267;51.032;6.998;2023-10-31T09:29:52;3.25;;;2.78;;
35084;SDS011;21267;51.032;6.998;2023-10-31T09:32:19;5.07;;;2.75;;
35084;SDS011;21267;51.032;6.998;2023-10-31T09:34:46;3.80;;;2.28;;
35084;SDS011;21267;51.032;6.998;2023-10-31T09:37:12;2.15;;;1.95;;
35084;SDS011;21267;51.032;6.998;2023-10-31T09:39:39;2.88;;;2.30;;
35084;SDS011;21267;51.032;6.998;2023-10-31T09:42:07;6.80;;;2.17;;
35084;SDS011;21267;51.032;6.998;2023-10-31T09:44:34;2.67;;;2.30;;
35084;SDS011;21267;51.032;6.998;2023-10-31T09:47:01;4.07;;;3.03;;
35084;SDS011;21267;51.032;6.998;2023-10-31T09:49:28;7.07;;;2.67;;
35084;SDS011;21267;51.032;6.998;2023-10-31T09:51:56;1.75;;;0.77;;
35084;SDS011;21267;51.032;6.998;2023-10-31T09:54:23;1.73;;;1.45;;
35084;SDS011;21267;51.032;6.998;2023-10-31T09:56:52;2.50;;;1.25;;
35084;SDS011;21267;51.032;6.998;2023-10-31T09:59:19;2.80;;;1.00;;
35084;SDS011;21267;51.032;6.998;2023-10-31T10:01:46;1.38;;;1.27;;
35084;SDS011;21267;51.032;6.998;2023-10-31T10:04:13;4.60;;;1.75;;
35084;SDS011;21267;51.032;6.998;2023-10-31T10:09:42;5.97;;;2.10;;
35084;SDS011;21267;51.032;6.998;2023-10-31T10:14:38;5.97;;;1.88;;
35084;SDS011;21267;51.032;6.998;2023-10-31T10:17:20;3.67;;;1.83;;
35084;SDS011;21267;51.032;6.998;2023-10-31T10:19:48;3.13;;;1.55;;
35084;SDS011;21267;51.032;6.998;2023-10-31T10:22:38;3.85;;;1.48;;
35084;SDS011;21267;51.032;6.998;2023-10-31T10:25:06;3.78;;;1.20;;
35084;SDS011;21267;51.032;6.998;2023-10-31T10:27:33;5.85;;;1.48;;
35084;SDS011;21267;51.032;6.998;2023-10-31T10:30:00;2.67;;;1.08;;
35084;SDS011;21267;51.032;6.998;2023-10-31T10:32:27;3.42;;;1.48;;
35084;SDS011;21267;51.032;6.998;2023-10-31T10:34:54;2.63;;;1.10;;
35084;SDS011;21267;51.032;6.998;2023-10-31T10:37:21;5.82;;;1.02;;
35084;SDS011;21267;51.032;6.998;2023-10-31T10:39:53;2.47;;;1.13;;
35084;SDS011;21267;51.032;6.998;2023-10-31T10:42:26;3.13;;;0.55;;
35084;SDS011;21267;51.032;6.998;2023-10-31T10:44:55;2.08;;;1.13;;
35084;SDS011;21267;51.032;6.998;2023-10-31T10:47:28;12.75;;;1.58;;
35084;SDS011;21267;51.032;6.998;2023-10-31T10:50:00;3.67;;;1.38;;
35084;SDS011;21267;51.032;6.998;2023-10-31T10:52:35;5.28;;;1.20;;
35084;SDS011;21267;51.032;6.998;2023-10-31T10:55:11;3.72;;;1.00;;
35084;SDS011;21267;51.032;6.998;2023-10-31T10:57:56;3.05;;;1.00;;
35084;SDS011;21267;51.032;6.998;2023-10-31T11:00:27;4.28;;;1.10;;
35084;SDS011;21267;51.032;6.998;2023-10-31T11:02:55;2.45;;;1.02;;
35084;SDS011;21267;51.032;6.998;2023-10-31T11:05:23;3.50;;;0.80;;
35084;SDS011;21267;51.032;6.998;2023-10-31T11:07:51;2.45;;;0.93;;
35084;SDS011;21267;51.032;6.998;2023-10-31T11:10:19;1.15;;;0.60;;
35084;SDS011;21267;51.032;6.998;2023-10-31T11:12:46;2.00;;;0.70;;
35084;SDS011;21267;51.032;6.998;2023-10-31T11:15:14;5.82;;;2.53;;
35084;SDS011;21267;51.032;6.998;2023-10-31T11:17:43;15.68;;;5.30;;
35084;SDS011;21267;51.032;6.998;2023-10-31T11:20:12;3.67;;;2.28;;
35084;SDS011;21267;51.032;6.998;2023-10-31T11:22:42;4.28;;;1.33;;
35084;SDS011;21267;51.032;6.998;2023-10-31T11:25:14;1.55;;;0.52;;
35084;SDS011;21267;51.032;6.998;2023-10-31T11:27:57;2.40;;;1.10;;
35084;SDS011;21267;51.032;6.998;2023-10-31T11:30:36;2.50;;;0.68;;
35084;SDS011;21267;51.032;6.998;2023-10-31T11:33:03;1.90;;;0.70;;
35084;SDS011;21267;51.032;6.998;2023-10-31T11:35:35;1.35;;;0.80;;
35084;SDS011;21267;51.032;6.998;2023-10-31T11:38:05;0.98;;;0.60;;
35084;SDS011;21267;51.032;6.998;2023-10-31T11:40:34;1.25;;;0.50;;
35084;SDS011;21267;51.032;6.998;2023-10-31T11:45:31;1.42;;;0.65;;
35084;SDS011;21267;51.032;6.998;2023-10-31T11:48:02;2.08;;;0.60;;
35084;SDS011;21267;51.032;6.998;2023-10-31T11:50:31;2.60;;;0.93;;
35084;SDS011;21267;51.032;6.998;2023-10-31T11:55:28;2.13;;;1.00;;
35084;SDS011;21267;51.032;6.998;2023-10-31T11:57:55;8.40;;;1.67;;
35084;SDS011;21267;51.032;6.998;2023-10-31T12:00:22;1.65;;;0.73;;
35084;SDS011;21267;51.032;6.998;2023-10-31T12:03:00;3.17;;;0.88;;
35084;SDS011;21267;51.032;6.998;2023-10-31T12:05:28;5.80;;;2.50;;
35084;SDS011;21267;51.032;6.998;2023-10-31T12:07:55;7.05;;;2.45;;
35084;SDS011;21267;51.032;6.998;2023-10-31T12:15:17;1.93;;;0.77;;
35084;SDS011;21267;51.032;6.998;2023-10-31T12:17:45;1.92;;;0.47;;
35084;SDS011;21267;51.032;6.998;2023-10-31T12:20:12;1.75;;;0.57;;
35084;SDS011;21267;51.032;6.998;2023-10-31T12:22:39;2.28;;;0.40;;
35084;SDS011;21267;51.032;6.998;2023-10-31T12:25:07;5.00;;;0.60;;
35084;SDS011;21267;51.032;6.998;2023-10-31T12:27:48;4.25;;;0.90;;
35084;SDS011;21267;51.032;6.998;2023-10-31T12:30:17;4.40;;;1.20;;
35084;SDS011;21267;51.032;6.998;2023-10-31T12:32:45;3.92;;;0.90;;
35084;SDS011;21267;51.032;6.998;2023-10-31T12:35:21;2.92;;;0.57;;
35084;SDS011;21267;51.032;6.998;2023-10-31T12:37:49;1.52;;;0.75;;
35084;SDS011;21267;51.032;6.998;2023-10-31T12:40:18;1.05;;;0.63;;
35084;SDS011;21267;51.032;6.998;2023-10-31T12:42:49;2.75;;;0.98;;
35084;SDS011;21267;51.032;6.998;2023-10-31T12:47:45;1.75;;;0.52;;
35084;SDS011;21267;51.032;6.998;2023-10-31T12:50:26;1.98;;;0.80;;
35084;SDS011;21267;51.032;6.998;2023-10-31T12:52:54;2.60;;;1.73;;
35084;SDS011;21267;51.032;6.998;2023-10-31T12:57:49;2.53;;;0.80;;
35084;SDS011;21267;51.032;6.998;2023-10-31T13:00:18;1.80;;;0.45;;
35084;SDS011;21267;51.032;6.998;2023-10-31T13:02:51;2.60;;;1.10;;
35084;SDS011;21267;51.032;6.998;2023-10-31T13:05:25;5.95;;;1.77;;
35084;SDS011;21267;51.032;6.998;2023-10-31T13:10:22;2.45;;;0.90;;
35084;SDS011;21267;51.032;6.998;2023-10-31T13:12:55;2.70;;;1.10;;
35084;SDS011;21267;51.032;6.998;2023-10-31T13:15:23;3.55;;;1.10;;
35084;SDS011;21267;51.032;6.998;2023-10-31T13:17:50;3.97;;;1.08;;
35084;SDS011;21267;51.032;6.998;2023-10-31T13:20:19;1.05;;;0.65;;
35084;SDS011;21267;51.032;6.998;2023-10-31T13:22:47;2.28;;;0.77;;
35084;SDS011;21267;51.032;6.998;2023-10-31T13:25:14;3.13;;;0.93;;
35084;SDS011;21267;51.032;6.998;2023-10-31T13:27:43;3.47;;;0.80;;
35084;SDS011;21267;51.032;6.998;2023-10-31T13:30:11;2.20;;;0.70;;
35084;SDS011;21267;51.032;6.998;2023-10-31T13:32:38;2.55;;;0.63;;
35084;SDS011;21267;51.032;6.998;2023-10-31T13:35:05;4.70;;;1.00;;
35084;SDS011;21267;51.032;6.998;2023-10-31T13:40:01;3.25;;;0.93;;
35084;SDS011;21267;51.032;6.998;2023-10-31T13:42:29;3.58;;;0.63;;
35084;SDS011;21267;51.032;6.998;2023-10-31T13:44:56;4.00;;;0.60;;
35084;SDS011;21267;51.032;6.998;2023-10-31T13:47:23;3.70;;;0.70;;
35084;SDS011;21267;51.032;6.998;2023-10-31T13:49:50;2.20;;;0.70;;
35084;SDS011;21267;51.032;6.998;2023-10-31T13:52:17;4.47;;;1.27;;
35084;SDS011;21267;51.032;6.998;2023-10-31T13:54:44;3.77;;;0.70;;
35084;SDS011;21267;51.032;6.998;2023-10-31T13:57:10;5.67;;;1.00;;
35084;SDS011;21267;51.032;6.998;2023-10-31T13:59:39;3.00;;;0.97;;
35084;SDS011;21267;51.032;6.998;2023-10-31T14:02:06;2.25;;;0.90;;
35084;SDS011;21267;51.032;6.998;2023-10-31T14:04:34;3.20;;;0.97;;
35084;SDS011;21267;51.032;6.998;2023-10-31T14:07:01;2.40;;;0.85;;
35084;SDS011;21267;51.032;6.998;2023-10-31T14:09:28;2.10;;;0.80;;
35084;SDS011;21267;51.032;6.998;2023-10-31T14:11:57;1.73;;;0.50;;
35084;SDS011;21267;51.032;6.998;2023-10-31T14:14:24;3.42;;;0.70;;
35084;SDS011;21267;51.032;6.998;2023-10-31T14:16:51;4.13;;;0.40;;
35084;SDS011;21267;51.032;6.998;2023-10-31T14:19:18;1.63;;;0.87;;
35084;SDS011;21267;51.032;6.998;2023-10-31T14:21:44;5.00;;;0.77;;
35084;SDS011;21267;51.032;6.998;2023-10-31T14:24:11;2.50;;;0.83;;
35084;SDS011;21267;51.032;6.998;2023-10-31T14:26:39;2.00;;;0.57;;
35084;SDS011;21267;51.032;6.998;2023-10-31T14:29:07;3.33;;;0.80;;
35084;SDS011;21267;51.032;6.998;2023-10-31T14:31:43;3.90;;;1.58;;
35084;SDS011;21267;51.032;6.998;2023-10-31T14:34:10;4.05;;;1.05;;
35084;SDS011;21267;51.032;6.998;2023-10-31T14:36:37;3.60;;;1.00;;
35084;SDS011;21267;51.032;6.998;2023-10-31T14:39:04;2.83;;;0.60;;
35084;SDS011;21267;51.032;6.998;2023-10-31T14:41:31;3.03;;;0.60;;
35084;SDS011;21267;51.032;6.998;2023-10-31T14:44:00;5.68;;;1.00;;
35084;SDS011;21267;51.032;6.998;2023-10-31T14:49:01;4.85;;;1.08;;
35084;SDS011;21267;51.032;6.998;2023-10-31T14:51:28;1.70;;;0.77;;
35084;SDS011;21267;51.032;6.998;2023-10-31T14:53:55;6.68;;;1.58;;
35084;SDS011;21267;51.032;6.998;2023-10-31T14:56:21;4.47;;;1.30;;
35084;SDS011;21267;51.032;6.998;2023-10-31T14:58:49;4.85;;;0.82;;
35084;SDS011;21267;51.032;6.998;2023-10-31T15:01:16;5.10;;;1.00;;
35084;SDS011;21267;51.032;6.998;2023-10-31T15:03:43;3.37;;;1.00;;
35084;SDS011;21267;51.032;6.998;2023-10-31T15:06:10;4.03;;;1.27;;
35084;SDS011;21267;51.032;6.998;2023-10-31T15:08:37;3.20;;;1.03;;
35084;SDS011;21267;51.032;6.998;2023-10-31T15:11:04;5.78;;;1.40;;
35084;SDS011;21267;51.032;6.998;2023-10-31T15:13:31;3.57;;;1.07;;
35084;SDS011;21267;51.032;6.998;2023-10-31T15:15:57;3.50;;;1.10;;
35084;SDS011;21267;51.032;6.998;2023-10-31T15:18:24;4.70;;;1.38;;
35084;SDS011;21267;51.032;6.998;2023-10-31T15:20:51;6.10;;;1.30;;
35084;SDS011;21267;51.032;6.998;2023-10-31T16:12:03;2.63;;;0.70;;
35084;SDS011;21267;51.032;6.998;2023-10-31T16:17:47;1.92;;;1.05;;
35084;SDS011;21267;51.032;6.998;2023-10-31T16:20:14;1.40;;;0.80;;
35084;SDS011;21267;51.032;6.998;2023-10-31T16:22:41;3.00;;;1.27;;
35084;SDS011;21267;51.032;6.998;2023-10-31T16:25:08;3.30;;;1.17;;
35084;SDS011;21267;51.032;6.998;2023-10-31T16:27:35;7.47;;;2.13;;
35084;SDS011;21267;51.032;6.998;2023-10-31T16:30:02;6.63;;;2.90;;
35084;SDS011;21267;51.032;6.998;2023-10-31T16:32:29;4.13;;;1.77;;
35084;SDS011;21267;51.032;6.998;2023-10-31T16:34:56;4.80;;;2.33;;
35084;SDS011;21267;51.032;6.998;2023-10-31T16:37:25;5.85;;;1.83;;
35084;SDS011;21267;51.032;6.998;2023-10-31T16:39:52;5.18;;;2.03;;
35084;SDS011;21267;51.032;6.998;2023-10-31T16:42:19;4.97;;;1.77;;
35084;SDS011;21267;51.032;6.998;2023-10-31T16:44:47;2.80;;;1.88;;
35084;SDS011;21267;51.032;6.998;2023-10-31T16:47:13;7.10;;;2.03;;
35084;SDS011;21267;51.032;6.998;2023-10-31T16:49:40;9.45;;;3.38;;